Time;durP1;ratioP1;P1;durP2;ratioP2;P2;SDS_P1;SDS_P2;PMS_P1;PMS_P2;Temp;Humidity;BMP_temperature;BMP_pressure;BME280_temperature;BME280_humidity;BME280_pressure;Samples;Min_cycle;Max_cycle;Signal;HPM_P1;HPM_P2
2022/11/10 00:02:42;;;;;;;76.53;22.77;;;;;;;;;;10342222;23;20016;-91
2022/11/10 00:06:47;;;;;;;78.97;24.60;;;;;;;;;;10359163;23;20020;-96
2022/11/10 00:11:00;;;;;;;83.88;23.60;;;;;;;;;;10340899;23;20022;-93
2022/11/10 00:19:24;;;;;;;89.93;23.52;;;;;;;;;;10344764;23;20024;-90
2022/11/10 00:23:27;;;;;;;76.43;24.35;;;;;;;;;;10341161;23;20015;-93
2022/11/10 00:27:29;;;;;;;88.10;23.65;;;;;;;;;;10341562;23;20036;-94
2022/11/10 00:31:32;;;;;;;112.63;26.27;;;;;;;;;;10341183;23;20023;-94
2022/11/10 00:35:36;;;;;;;94.30;23.70;;;;;;;;;;10341229;23;20020;-95
2022/11/10 00:39:38;;;;;;;98.95;25.15;;;;;;;;;;10341148;23;20039;-92
2022/11/10 00:43:41;;;;;;;108.95;27.15;;;;;;;;;;10340968;23;20028;-90
2022/11/10 00:47:45;;;;;;;93.90;25.42;;;;;;;;;;10340600;23;20020;-95
2022/11/10 00:51:50;;;;;;;96.43;24.58;;;;;;;;;;10340038;23;20020;-92
2022/11/10 00:55:52;;;;;;;97.95;25.50;;;;;;;;;;10339347;23;20391;-94
2022/11/10 00:59:55;;;;;;;87.88;23.92;;;;;;;;;;10340876;23;20020;-96
2022/11/10 01:03:57;;;;;;;83.80;24.13;;;;;;;;;;10341194;23;20012;-95
2022/11/10 01:08:02;;;;;;;125.88;28.95;;;;;;;;;;10341177;23;20016;-95
2022/11/10 01:12:04;;;;;;;119.38;29.67;;;;;;;;;;10340667;23;20466;-94
2022/11/10 01:16:08;;;;;;;141.70;30.13;;;;;;;;;;10339955;23;20016;-91
2022/11/10 01:20:11;;;;;;;139.73;30.60;;;;;;;;;;10339445;23;20401;-95
2022/11/10 01:24:19;;;;;;;127.70;29.15;;;;;;;;;;10339769;23;20016;-95
2022/11/10 01:28:21;;;;;;;131.73;29.23;;;;;;;;;;10340854;23;20031;-95
2022/11/10 01:32:24;;;;;;;113.15;28.15;;;;;;;;;;10340665;23;20020;-95
2022/11/10 01:36:26;;;;;;;142.80;29.98;;;;;;;;;;10340582;23;20345;-94
2022/11/10 01:40:30;;;;;;;135.75;30.08;;;;;;;;;;10340310;23;20020;-90
2022/11/10 01:44:35;;;;;;;132.18;29.42;;;;;;;;;;10339696;23;20023;-95
2022/11/10 01:48:44;;;;;;;129.27;30.05;;;;;;;;;;10356167;23;20086;-95
2022/11/10 01:52:49;;;;;;;135.23;28.10;;;;;;;;;;10356302;23;20020;-89
2022/11/10 01:56:56;;;;;;;120.72;29.25;;;;;;;;;;10356864;23;20031;-94
2022/11/10 02:00:58;;;;;;;124.32;28.50;;;;;;;;;;10355353;23;20023;-95
2022/11/10 02:05:04;;;;;;;120.55;28.90;;;;;;;;;;10340757;23;20020;-95
2022/11/10 02:09:06;;;;;;;115.30;29.98;;;;;;;;;;10357697;23;20023;-95
2022/11/10 02:13:11;;;;;;;145.07;32.97;;;;;;;;;;10340019;23;20046;-96
2022/11/10 02:17:14;;;;;;;97.50;26.95;;;;;;;;;;10339487;23;20048;-95
2022/11/10 02:21:20;;;;;;;128.45;28.38;;;;;;;;;;10339639;23;20022;-92
2022/11/10 02:25:25;;;;;;;110.63;28.40;;;;;;;;;;10356811;23;20023;-93
2022/11/10 02:29:28;;;;;;;105.97;26.48;;;;;;;;;;10356596;23;20015;-94
2022/11/10 02:33:31;;;;;;;126.28;29.17;;;;;;;;;;10341295;23;20016;-94
2022/11/10 02:37:35;;;;;;;112.93;28.38;;;;;;;;;;10342704;23;20020;-89
2022/11/10 02:41:37;;;;;;;120.22;29.20;;;;;;;;;;10342677;23;20031;-95
2022/11/10 02:45:44;;;;;;;113.75;29.77;;;;;;;;;;10342935;23;20026;-94
2022/11/10 02:49:46;;;;;;;120.85;29.05;;;;;;;;;;10342518;23;20016;-94
2022/11/10 02:53:50;;;;;;;121.00;28.52;;;;;;;;;;10342634;23;20020;-93
2022/11/10 02:57:52;;;;;;;115.53;26.55;;;;;;;;;;10342325;23;20513;-94
2022/11/10 03:01:55;;;;;;;127.57;27.20;;;;;;;;;;10342458;23;20016;-94
2022/11/10 03:05:58;;;;;;;121.07;28.23;;;;;;;;;;10342521;23;20429;-94
2022/11/10 03:10:02;;;;;;;121.15;29.35;;;;;;;;;;10342605;23;20020;-95
2022/11/10 03:14:05;;;;;;;133.85;30.23;;;;;;;;;;10342709;23;20016;-95
2022/11/10 03:18:09;;;;;;;108.75;26.73;;;;;;;;;;10342315;23;20403;-95
2022/11/10 03:22:11;;;;;;;103.32;26.85;;;;;;;;;;10342493;23;20020;-95
2022/11/10 03:26:15;;;;;;;113.35;27.98;;;;;;;;;;10342329;23;20337;-93
2022/11/10 03:30:18;;;;;;;111.93;26.95;;;;;;;;;;10342310;23;20016;-95
2022/11/10 03:34:20;;;;;;;140.45;33.40;;;;;;;;;;10342386;23;20016;-95
2022/11/10 03:38:23;;;;;;;155.40;41.72;;;;;;;;;;10342686;23;20024;-95
2022/11/10 03:42:27;;;;;;;110.07;28.63;;;;;;;;;;10342183;23;20340;-94
2022/11/10 03:46:29;;;;;;;113.25;32.13;;;;;;;;;;10341995;23;20016;-95
2022/11/10 03:50:32;;;;;;;104.35;29.27;;;;;;;;;;10342190;23;20100;-94
2022/11/10 03:54:34;;;;;;;118.55;31.25;;;;;;;;;;10341541;23;20433;-94
2022/11/10 03:58:38;;;;;;;107.63;27.40;;;;;;;;;;10341806;23;20022;-89
2022/11/10 04:02:41;;;;;;;104.03;27.58;;;;;;;;;;10341518;23;20016;-95
2022/11/10 04:11:03;;;;;;;84.57;27.27;;;;;;;;;;10360130;23;20449;-92
2022/11/10 04:19:30;;;;;;;115.95;36.70;;;;;;;;;;10349138;23;20020;-96
2022/11/10 04:23:35;;;;;;;118.68;33.40;;;;;;;;;;10346171;23;20027;-96
2022/11/10 04:27:39;;;;;;;105.80;33.70;;;;;;;;;;10344172;23;20040;-94
2022/11/10 04:31:43;;;;;;;116.03;31.17;;;;;;;;;;10340511;23;20329;-95
2022/11/10 04:35:45;;;;;;;130.88;35.92;;;;;;;;;;10340441;23;20019;-95
2022/11/10 04:39:48;;;;;;;155.55;44.92;;;;;;;;;;10340394;23;20020;-94
2022/11/10 04:43:50;;;;;;;138.40;40.65;;;;;;;;;;10340848;23;20440;-93
2022/11/10 04:47:55;;;;;;;148.73;44.70;;;;;;;;;;10340860;23;20096;-92
2022/11/10 04:51:57;;;;;;;117.78;34.85;;;;;;;;;;10340814;23;20027;-95
2022/11/10 04:56:00;;;;;;;136.05;35.10;;;;;;;;;;10340858;23;20349;-95
2022/11/10 05:00:03;;;;;;;122.80;29.00;;;;;;;;;;10345353;23;20027;-96
2022/11/10 05:04:07;;;;;;;127.78;34.97;;;;;;;;;;10350965;23;20026;-96
2022/11/10 05:08:10;;;;;;;127.68;33.95;;;;;;;;;;10344443;23;20436;-94
2022/11/10 05:12:13;;;;;;;137.80;31.60;;;;;;;;;;10343203;23;20170;-96
2022/11/10 05:16:15;;;;;;;96.93;25.92;;;;;;;;;;10346010;23;20020;-91
2022/11/10 05:20:21;;;;;;;114.07;27.90;;;;;;;;;;10343564;23;20024;-96
2022/11/10 05:24:23;;;;;;;101.45;27.40;;;;;;;;;;10363242;23;20030;-96
2022/11/10 05:28:27;;;;;;;105.43;31.08;;;;;;;;;;10349796;23;20019;-92
2022/11/10 05:32:29;;;;;;;96.68;28.15;;;;;;;;;;10355229;22;20051;-91
2022/11/10 05:36:35;;;;;;;88.45;25.25;;;;;;;;;;10385447;22;20011;-90
2022/11/10 05:40:37;;;;;;;100.32;25.73;;;;;;;;;;10403199;22;20023;-90
2022/11/10 05:44:40;;;;;;;112.78;31.60;;;;;;;;;;10385918;22;20004;-90
2022/11/10 05:48:43;;;;;;;111.82;32.08;;;;;;;;;;10371973;22;20020;-96
2022/11/10 05:52:49;;;;;;;107.25;28.88;;;;;;;;;;10353647;23;20016;-95
2022/11/10 05:56:52;;;;;;;106.43;28.42;;;;;;;;;;10290030;23;20024;-94
2022/11/10 06:00:55;;;;;;;91.85;27.85;;;;;;;;;;10345650;23;20126;-91
2022/11/10 06:05:01;;;;;;;96.55;27.33;;;;;;;;;;10320801;23;20020;-93
2022/11/10 06:09:10;;;;;;;86.72;25.63;;;;;;;;;;10362137;23;20384;-94
2022/11/10 06:13:13;;;;;;;95.63;24.85;;;;;;;;;;10376322;23;20027;-94
2022/11/10 06:17:20;;;;;;;90.18;25.67;;;;;;;;;;10359984;23;20067;-96
2022/11/10 06:21:22;;;;;;;85.55;26.05;;;;;;;;;;10364170;23;20027;-91
2022/11/10 06:25:27;;;;;;;85.57;24.23;;;;;;;;;;10339696;23;20016;-91
2022/11/10 06:29:30;;;;;;;99.40;27.13;;;;;;;;;;10339276;23;20073;-91
2022/11/10 06:33:32;;;;;;;75.75;24.38;;;;;;;;;;10339605;23;20400;-91
2022/11/10 06:37:37;;;;;;;90.35;25.23;;;;;;;;;;10339689;23;20020;-92
2022/11/10 06:41:46;;;;;;;92.85;26.33;;;;;;;;;;10363637;23;20020;-91
2022/11/10 06:45:50;;;;;;;76.05;23.63;;;;;;;;;;10348487;23;20091;-95
2022/11/10 06:49:53;;;;;;;96.50;25.13;;;;;;;;;;10341545;23;20024;-93
2022/11/10 06:53:55;;;;;;;84.68;23.98;;;;;;;;;;10340874;23;20016;-95
2022/11/10 06:58:00;;;;;;;78.93;23.90;;;;;;;;;;10341230;23;20020;-92
2022/11/10 07:02:02;;;;;;;80.32;25.35;;;;;;;;;;10339685;23;20566;-91
2022/11/10 07:06:12;;;;;;;72.55;22.35;;;;;;;;;;10370769;23;20017;-95
2022/11/10 07:10:20;;;;;;;;;;;;;;;;;;10381685;23;20016;-91
2022/11/10 07:14:24;;;;;;;66.10;22.48;;;;;;;;;;10385548;23;20254;-94
2022/11/10 07:18:27;;;;;;;62.33;23.73;;;;;;;;;;10346683;23;20024;-93
2022/11/10 07:22:30;;;;;;;87.00;28.30;;;;;;;;;;10355433;23;20140;-91
2022/11/10 07:26:33;;;;;;;78.00;29.08;;;;;;;;;;10353580;23;20366;-94
2022/11/10 07:30:45;;;;;;;83.47;27.02;;;;;;;;;;10384603;23;20019;-90
2022/11/10 07:34:52;;;;;;;87.85;28.38;;;;;;;;;;10372379;23;20016;-91
2022/11/10 07:38:55;;;;;;;59.83;21.00;;;;;;;;;;10370221;23;20063;-91
2022/11/10 07:42:59;;;;;;;64.20;23.23;;;;;;;;;;10307672;23;20020;-91
2022/11/10 07:47:03;;;;;;;65.13;23.90;;;;;;;;;;10340258;23;20086;-95
2022/11/10 07:51:06;;;;;;;65.35;22.65;;;;;;;;;;10342019;23;20031;-92
2022/11/10 07:55:09;;;;;;;62.80;21.40;;;;;;;;;;10344181;23;20026;-91
2022/11/10 07:59:12;;;;;;;67.45;21.92;;;;;;;;;;10351082;23;20031;-95
2022/11/10 08:03:21;;;;;;;57.78;20.75;;;;;;;;;;10348407;23;20020;-92
2022/11/10 08:07:25;;;;;;;62.38;23.70;;;;;;;;;;10360876;23;20083;-91
2022/11/10 08:11:39;;;;;;;47.92;19.13;;;;;;;;;;10343619;23;20096;-96
2022/11/10 08:21:05;;;;;;;62.58;20.67;;;;;;;;;;10344825;23;20340;-93
2022/11/10 08:25:13;;;;;;;60.05;19.17;;;;;;;;;;10336715;23;20039;-91
2022/11/10 08:29:23;;;;;;;52.53;20.45;;;;;;;;;;10350155;23;20330;-91
2022/11/10 08:33:26;;;;;;;59.58;21.58;;;;;;;;;;10333637;23;20020;-92
2022/11/10 08:37:31;;;;;;;56.40;22.17;;;;;;;;;;10335040;23;20460;-96
2022/11/10 08:41:34;;;;;;;62.70;21.80;;;;;;;;;;10333481;23;20024;-92
2022/11/10 08:45:39;;;;;;;62.75;22.77;;;;;;;;;;10332867;23;20440;-94
2022/11/10 08:49:49;;;;;;;49.43;18.50;;;;;;;;;;10349605;23;20026;-93
2022/11/10 08:53:59;;;;;;;49.95;18.85;;;;;;;;;;10315670;23;20024;-93
2022/11/10 08:58:07;;;;;;;46.78;17.88;;;;;;;;;;10349978;23;20052;-94
2022/11/10 09:02:16;;;;;;;49.30;19.15;;;;;;;;;;10332458;23;20063;-92
2022/11/10 09:06:30;;;;;;;42.63;16.55;;;;;;;;;;10333755;23;20035;-91
2022/11/10 09:10:43;;;;;;;41.17;18.08;;;;;;;;;;10347668;23;20027;-92
2022/11/10 09:14:49;;;;;;;38.65;16.50;;;;;;;;;;10349339;23;20030;-94
2022/11/10 09:18:55;;;;;;;39.78;16.92;;;;;;;;;;10333219;23;20035;-96
2022/11/10 09:27:46;;;;;;;47.83;17.55;;;;;;;;;;10335995;23;20012;-94
2022/11/10 09:31:49;;;;;;;52.22;19.55;;;;;;;;;;10331672;23;20097;-93
2022/11/10 09:35:57;;;;;;;47.75;19.27;;;;;;;;;;10331325;23;20124;-93
2022/11/10 09:40:00;;;;;;;39.97;17.65;;;;;;;;;;10333433;23;20042;-92
2022/11/10 09:49:10;;;;;;;45.97;19.15;;;;;;;;;;10116818;22;20024;-94
2022/11/10 09:53:28;;;;;;;48.25;18.60;;;;;;;;;;10332828;23;20417;-93
2022/11/10 09:57:32;;;;;;;46.28;18.17;;;;;;;;;;10350161;23;20020;-93
2022/11/10 10:01:42;;;;;;;42.78;17.95;;;;;;;;;;10333488;23;20031;-93
2022/11/10 10:15:41;;;;;;;40.25;18.67;;;;;;;;;;10368239;23;20020;-93
2022/11/10 10:19:57;;;;;;;42.40;18.08;;;;;;;;;;10335937;23;20535;-93
2022/11/10 10:24:16;;;;;;;42.75;17.05;;;;;;;;;;10356948;23;20386;-95
2022/11/10 10:28:38;;;;;;;36.47;18.45;;;;;;;;;;10343000;23;20317;-93
2022/11/10 10:32:43;;;;;;;36.13;16.85;;;;;;;;;;10360036;23;20043;-94
2022/11/10 10:36:49;;;;;;;32.45;16.63;;;;;;;;;;10357372;23;20044;-96
2022/11/10 10:41:34;;;;;;;38.35;16.25;;;;;;;;;;10316833;23;20052;-96
2022/11/10 10:46:33;;;;;;;34.03;16.58;;;;;;;;;;10367403;23;20074;-96
2022/11/10 10:56:17;;;;;;;32.53;16.05;;;;;;;;;;10151489;23;20033;-93
2022/11/10 11:00:24;;;;;;;36.25;17.35;;;;;;;;;;10142855;23;20025;-95
2022/11/10 11:04:35;;;;;;;31.38;15.50;;;;;;;;;;10134752;23;20073;-95
2022/11/10 11:08:54;;;;;;;33.50;14.13;;;;;;;;;;10134418;23;20109;-94
2022/11/10 11:13:13;;;;;;;32.45;16.55;;;;;;;;;;10135182;23;20030;-93
2022/11/10 11:17:20;;;;;;;37.25;16.45;;;;;;;;;;10152180;23;20097;-93
2022/11/10 11:21:33;;;;;;;34.10;16.02;;;;;;;;;;10136113;23;20104;-93
2022/11/10 11:25:42;;;;;;;34.88;15.98;;;;;;;;;;10136629;23;20059;-94
2022/11/10 11:30:06;;;;;;;30.40;15.60;;;;;;;;;;10153264;23;20404;-93
2022/11/10 11:34:22;;;;;;;30.10;15.00;;;;;;;;;;10330029;23;20088;-94
2022/11/10 11:38:32;;;;;;;29.50;14.70;;;;;;;;;;10323584;23;20082;-95
2022/11/10 11:42:53;;;;;;;28.30;14.70;;;;;;;;;;10357127;23;20022;-94
2022/11/10 11:47:09;;;;;;;27.77;15.60;;;;;;;;;;10357556;23;20031;-94
2022/11/10 11:51:18;;;;;;;32.63;14.65;;;;;;;;;;10396828;22;20042;-95
2022/11/10 11:55:31;;;;;;;29.67;15.10;;;;;;;;;;10402225;22;20011;-92
2022/11/10 11:59:59;;;;;;;26.20;15.10;;;;;;;;;;10402361;22;20047;-90
2022/11/10 12:04:34;;;;;;;33.90;14.45;;;;;;;;;;10401587;23;20051;-92
2022/11/10 12:08:48;;;;;;;25.10;14.65;;;;;;;;;;10360112;23;20075;-94
2022/11/10 12:13:14;;;;;;;27.38;14.70;;;;;;;;;;10380011;23;20016;-96
2022/11/10 12:17:26;;;;;;;27.38;14.45;;;;;;;;;;10368471;23;20090;-95
2022/11/10 12:22:07;;;;;;;25.55;12.35;;;;;;;;;;10344404;23;20024;-95
2022/11/10 12:26:17;;;;;;;28.02;14.45;;;;;;;;;;10344866;23;20031;-94
2022/11/10 12:30:19;;;;;;;27.48;13.82;;;;;;;;;;10358480;23;20023;-95
2022/11/10 12:34:32;;;;;;;25.85;13.50;;;;;;;;;;10345397;23;20016;-94
2022/11/10 12:38:53;;;;;;;23.77;13.38;;;;;;;;;;10361905;23;20016;-92
2022/11/10 12:43:06;;;;;;;27.25;13.48;;;;;;;;;;10351887;23;20344;-92
2022/11/10 12:47:15;;;;;;;25.85;12.98;;;;;;;;;;10351159;23;20024;-93
2022/11/10 12:51:25;;;;;;;25.75;12.55;;;;;;;;;;10337510;23;20357;-93
2022/11/10 12:55:39;;;;;;;21.63;13.20;;;;;;;;;;10350035;23;20365;-93
2022/11/10 12:59:50;;;;;;;23.90;13.20;;;;;;;;;;10348657;23;20020;-93
2022/11/10 13:03:55;;;;;;;20.23;12.00;;;;;;;;;;10344955;23;20020;-92
2022/11/10 13:08:39;;;;;;;24.40;12.80;;;;;;;;;;10345535;23;20449;-94
2022/11/10 13:12:59;;;;;;;22.35;12.75;;;;;;;;;;10260003;23;20438;-92
2022/11/10 13:17:09;;;;;;;23.88;12.45;;;;;;;;;;10359368;23;20031;-92
2022/11/10 13:21:12;;;;;;;24.17;12.25;;;;;;;;;;10361627;23;20028;-93
2022/11/10 13:26:01;;;;;;;22.90;12.20;;;;;;;;;;10344122;23;20031;-94
2022/11/10 13:30:43;;;;;;;20.50;11.68;;;;;;;;;;10368402;23;20027;-94
2022/11/10 13:34:48;;;;;;;24.98;11.05;;;;;;;;;;10348268;23;20050;-93
2022/11/10 13:38:54;;;;;;;23.05;11.45;;;;;;;;;;10365496;23;20020;-92
2022/11/10 13:43:24;;;;;;;23.90;12.07;;;;;;;;;;10354181;23;20059;-95
2022/11/10 13:47:54;;;;;;;20.92;11.70;;;;;;;;;;10318924;23;20103;-93
2022/11/10 13:57:05;;;;;;;20.98;11.90;;;;;;;;;;10369056;23;20031;-96
2022/11/10 14:01:36;;;;;;;20.67;11.70;;;;;;;;;;10356958;23;20448;-96
2022/11/10 14:06:22;;;;;;;28.88;15.55;;;;;;;;;;10363701;23;20027;-96
2022/11/10 14:11:19;;;;;;;33.92;20.25;;;;;;;;;;10259004;23;20065;-95
2022/11/10 14:15:27;;;;;;;31.83;18.35;;;;;;;;;;10178214;23;20342;-94
2022/11/10 14:19:38;;;;;;;24.95;13.98;;;;;;;;;;10244521;23;20029;-94
2022/11/10 14:23:54;;;;;;;24.10;15.38;;;;;;;;;;10246859;23;20099;-95
2022/11/10 14:32:45;;;;;;;26.95;15.15;;;;;;;;;;10121221;23;20042;-95
2022/11/10 14:37:10;;;;;;;26.30;17.02;;;;;;;;;;10115828;23;20086;-96
2022/11/10 14:46:37;;;;;;;30.88;19.42;;;;;;;;;;10074285;23;20050;-95
2022/11/10 14:50:42;;;;;;;35.72;22.58;;;;;;;;;;10053711;23;20026;-95
2022/11/10 14:54:56;;;;;;;34.55;23.60;;;;;;;;;;10040299;23;20018;-95
2022/11/10 14:59:13;;;;;;;34.70;19.33;;;;;;;;;;10054394;23;20027;-95
2022/11/10 15:03:26;;;;;;;31.80;18.30;;;;;;;;;;10050853;23;20031;-95
2022/11/10 15:07:29;;;;;;;26.10;16.40;;;;;;;;;;10056062;23;20070;-91
2022/11/10 15:22:54;;;;;;;35.72;18.02;;;;;;;;;;9870549;24;20024;-95
2022/11/10 15:28:14;;;;;;;27.85;15.63;;;;;;;;;;9789720;24;20029;-95
2022/11/10 18:40:08;;;;;;;245.20;79.55;;;;;;;;;;10303905;23;19938;-95
2022/11/10 18:45:09;;;;;;;205.90;71.82;;;;;;;;;;10287558;23;20027;-96
2022/11/10 18:54:14;;;;;;;131.15;48.63;;;;;;;;;;10310224;23;20043;-95
2022/11/10 18:58:31;;;;;;;102.75;42.58;;;;;;;;;;10213405;23;20022;-95
2022/11/10 19:02:47;;;;;;;477.77;58.88;;;;;;;;;;10183593;23;20024;-95
2022/11/10 19:12:36;;;;;;;129.13;46.05;;;;;;;;;;10249489;23;20020;-93
2022/11/10 19:17:23;;;;;;;167.25;53.08;;;;;;;;;;10402996;22;20024;-92
2022/11/10 19:21:27;;;;;;;148.70;45.00;;;;;;;;;;10374284;22;20020;-90
2022/11/10 19:25:31;;;;;;;161.13;49.30;;;;;;;;;;10386988;22;20023;-91
2022/11/10 19:29:36;;;;;;;122.32;43.78;;;;;;;;;;10419704;22;20030;-92
2022/11/10 19:33:41;;;;;;;118.78;42.72;;;;;;;;;;10435635;22;20534;-92
2022/11/10 19:37:47;;;;;;;100.43;38.92;;;;;;;;;;10455590;22;20094;-91
2022/11/10 19:41:49;;;;;;;108.68;37.60;;;;;;;;;;10437885;22;20019;-91
2022/11/10 19:46:00;;;;;;;123.22;40.97;;;;;;;;;;10438925;22;20019;-92
2022/11/10 19:50:06;;;;;;;201.85;62.80;;;;;;;;;;10437467;22;20027;-93
2022/11/10 19:54:12;;;;;;;168.55;48.42;;;;;;;;;;10436125;22;20119;-91
2022/11/10 19:58:15;;;;;;;123.57;40.17;;;;;;;;;;10435544;22;20347;-91
2022/11/10 20:02:19;;;;;;;91.63;36.15;;;;;;;;;;10435979;22;20521;-91
2022/11/10 20:06:22;;;;;;;326.33;97.55;;;;;;;;;;10437060;22;20475;-91
2022/11/10 20:10:26;;;;;;;97.97;34.42;;;;;;;;;;10438132;22;20149;-91
2022/11/10 20:14:29;;;;;;;132.43;41.92;;;;;;;;;;10439428;22;20015;-94
2022/11/10 20:18:38;;;;;;;90.63;34.92;;;;;;;;;;10440338;22;20027;-95
2022/11/10 20:22:52;;;;;;;75.90;31.63;;;;;;;;;;10465456;22;20015;-95
2022/11/10 20:27:03;;;;;;;68.63;24.60;;;;;;;;;;10454957;22;20019;-93
2022/11/10 20:31:10;;;;;;;75.25;27.90;;;;;;;;;;10476838;22;20038;-91
2022/11/10 20:35:15;;;;;;;77.20;27.48;;;;;;;;;;10443655;22;20023;-93
2022/11/10 20:39:19;;;;;;;108.75;35.78;;;;;;;;;;10446066;22;20038;-95
2022/11/10 20:43:23;;;;;;;112.80;37.08;;;;;;;;;;10443631;22;20020;-92
2022/11/10 20:47:28;;;;;;;189.13;56.83;;;;;;;;;;10443095;22;20038;-93
2022/11/10 20:51:33;;;;;;;63.72;25.75;;;;;;;;;;10443500;22;20019;-93
2022/11/10 20:55:38;;;;;;;158.05;43.88;;;;;;;;;;10442986;22;20020;-95
2022/11/10 20:59:44;;;;;;;60.05;26.80;;;;;;;;;;10461437;22;20443;-95
2022/11/10 21:03:48;;;;;;;58.25;24.52;;;;;;;;;;10460905;22;20039;-92
2022/11/10 21:07:52;;;;;;;71.63;26.55;;;;;;;;;;10442907;22;20042;-94
2022/11/10 21:16:16;;;;;;;76.75;31.10;;;;;;;;;;10442841;22;20045;-94
2022/11/10 21:20:19;;;;;;;53.15;22.38;;;;;;;;;;10443075;22;20019;-90
2022/11/10 21:24:27;;;;;;;82.80;30.67;;;;;;;;;;10443691;22;20086;-94
2022/11/10 21:28:29;;;;;;;73.15;29.80;;;;;;;;;;10446357;22;20470;-91
2022/11/10 21:32:32;;;;;;;70.28;28.88;;;;;;;;;;10443696;22;20015;-95
2022/11/10 21:36:35;;;;;;;66.75;25.65;;;;;;;;;;10444481;22;20080;-96
2022/11/10 21:40:41;;;;;;;67.63;24.42;;;;;;;;;;10446746;22;20030;-93
2022/11/10 21:44:43;;;;;;;114.68;35.50;;;;;;;;;;10444161;22;20022;-95
2022/11/10 21:48:46;;;;;;;162.55;41.88;;;;;;;;;;10442966;22;20023;-94
2022/11/10 21:52:49;;;;;;;190.68;63.67;;;;;;;;;;10443117;22;20474;-93
2022/11/10 21:56:53;;;;;;;65.82;25.50;;;;;;;;;;10443200;22;20019;-96
2022/11/10 22:01:01;;;;;;;175.75;45.53;;;;;;;;;;10442895;22;20098;-94
2022/11/10 22:05:04;;;;;;;165.52;38.42;;;;;;;;;;10460386;22;20374;-95
2022/11/10 22:09:08;;;;;;;174.45;42.70;;;;;;;;;;10442589;22;20436;-94
2022/11/10 22:21:57;;;;;;;158.68;44.47;;;;;;;;;;10442315;22;20039;-96
2022/11/10 22:25:59;;;;;;;112.15;32.05;;;;;;;;;;10442676;22;20016;-91
2022/11/10 22:30:05;;;;;;;75.60;27.20;;;;;;;;;;10442374;22;20050;-96
2022/11/10 22:34:07;;;;;;;74.57;22.63;;;;;;;;;;10459350;22;20456;-96
2022/11/10 22:38:10;;;;;;;92.50;28.73;;;;;;;;;;10442446;22;20060;-95
2022/11/10 22:46:36;;;;;;;84.90;27.23;;;;;;;;;;10458838;22;20389;-95
2022/11/10 22:50:39;;;;;;;56.33;18.95;;;;;;;;;;10441968;22;20362;-92
2022/11/10 22:54:42;;;;;;;62.92;18.90;;;;;;;;;;10441345;22;20027;-92
2022/11/10 22:58:44;;;;;;;71.63;20.77;;;;;;;;;;10441535;22;20019;-94
2022/11/10 23:02:52;;;;;;;140.25;29.45;;;;;;;;;;10441574;22;20182;-94
2022/11/10 23:06:54;;;;;;;90.13;24.75;;;;;;;;;;10441638;22;20452;-95
2022/11/10 23:10:59;;;;;;;320.58;80.60;;;;;;;;;;10441699;22;20046;-94
2022/11/10 23:15:02;;;;;;;99.22;31.30;;;;;;;;;;10439682;22;20023;-95
2022/11/10 23:19:06;;;;;;;55.08;19.15;;;;;;;;;;10445621;22;20015;-95
2022/11/10 23:23:09;;;;;;;78.28;26.92;;;;;;;;;;10445378;22;20015;-94
2022/11/10 23:27:12;;;;;;;51.35;18.73;;;;;;;;;;10443706;22;20073;-95
2022/11/10 23:31:16;;;;;;;87.13;24.77;;;;;;;;;;10461636;22;20046;-91
2022/11/10 23:35:20;;;;;;;112.60;35.80;;;;;;;;;;10442643;22;20022;-94
2022/11/10 23:39:23;;;;;;;122.97;55.70;;;;;;;;;;10441268;22;20023;-95
2022/11/10 23:43:26;;;;;;;78.70;36.03;;;;;;;;;;10441703;22;20040;-95
2022/11/10 23:47:29;;;;;;;97.15;46.55;;;;;;;;;;10441736;22;20511;-94
2022/11/10 23:51:33;;;;;;;101.32;41.13;;;;;;;;;;10441470;22;20384;-94
2022/11/10 23:55:36;;;;;;;568.58;184.68;;;;;;;;;;10441990;22;20388;-94
2022/11/10 23:59:39;;;;;;;453.20;126.60;;;;;;;;;;10443425;22;20023;-94
